sensor_id;sensor_type;location;lat;lon;timestamp;pressure;altitude;pressure_sealevel;temperature;humidity
71424;BME280;59240;51.370;-0.486;2022-09-09T00:03:53;100160.13;;;14.74;91.28
71424;BME280;59240;51.370;-0.486;2022-09-09T00:06:30;100141.19;;;14.69;91.93
71424;BME280;59240;51.370;-0.486;2022-09-09T00:09:08;100149.81;;;14.71;91.40
71424;BME280;59240;51.370;-0.486;2022-09-09T00:11:44;100148.88;;;14.72;91.23
71424;BME280;59240;51.370;-0.486;2022-09-09T00:14:26;100180.22;;;14.93;91.65
71424;BME280;59240;51.370;-0.486;2022-09-09T00:17:02;100162.94;;;14.89;91.42
71424;BME280;59240;51.370;-0.486;2022-09-09T00:19:48;100161.41;;;14.85;91.30
71424;BME280;59240;51.370;-0.486;2022-09-09T00:22:20;100124.75;;;14.66;91.22
71424;BME280;59240;51.370;-0.486;2022-09-09T00:24:55;100172.97;;;14.98;91.94
71424;BME280;59240;51.370;-0.486;2022-09-09T00:27:31;100159.53;;;14.87;91.93
71424;BME280;59240;51.370;-0.486;2022-09-09T00:30:31;100147.34;;;14.86;92.17
71424;BME280;59240;51.370;-0.486;2022-09-09T00:33:10;100168.50;;;15.00;91.26
71424;BME280;59240;51.370;-0.486;2022-09-09T00:35:44;100126.06;;;14.74;91.21
71424;BME280;59240;51.370;-0.486;2022-09-09T00:41:03;100167.97;;;15.11;91.24
71424;BME280;59240;51.370;-0.486;2022-09-09T00:43:35;100120.28;;;14.85;91.69
71424;BME280;59240;51.370;-0.486;2022-09-09T00:46:09;100171.28;;;15.14;91.34
71424;BME280;59240;51.370;-0.486;2022-09-09T00:48:56;100150.75;;;15.05;91.95
71424;BME280;59240;51.370;-0.486;2022-09-09T00:54:13;100171.91;;;15.19;92.18
71424;BME280;59240;51.370;-0.486;2022-09-09T00:57:10;100176.13;;;15.22;91.08
71424;BME280;59240;51.370;-0.486;2022-09-09T01:04:51;100141.03;;;15.07;91.34
71424;BME280;59240;51.370;-0.486;2022-09-09T01:07:19;100161.84;;;15.27;90.65
71424;BME280;59240;51.370;-0.486;2022-09-09T01:09:52;100149.22;;;15.18;91.29
71424;BME280;59240;51.370;-0.486;2022-09-09T01:12:41;100160.94;;;15.28;90.76
71424;BME280;59240;51.370;-0.486;2022-09-09T01:15:09;100166.03;;;15.31;92.11
71424;BME280;59240;51.370;-0.486;2022-09-09T01:18:00;100159.22;;;15.27;91.50
71424;BME280;59240;51.370;-0.486;2022-09-09T01:20:39;100137.34;;;15.11;91.61
71424;BME280;59240;51.370;-0.486;2022-09-09T01:28:16;100086.28;;;14.84;91.08
71424;BME280;59240;51.370;-0.486;2022-09-09T01:30:45;100133.63;;;15.15;91.04
71424;BME280;59240;51.370;-0.486;2022-09-09T01:33:15;100162.63;;;15.29;90.91
71424;BME280;59240;51.370;-0.486;2022-09-09T01:35:58;100161.84;;;15.27;91.30
71424;BME280;59240;51.370;-0.486;2022-09-09T01:38:27;100135.47;;;15.13;90.33
71424;BME280;59240;51.370;-0.486;2022-09-09T01:40:55;100161.78;;;15.29;90.35
71424;BME280;59240;51.370;-0.486;2022-09-09T01:43:22;100160.94;;;15.28;90.66
71424;BME280;59240;51.370;-0.486;2022-09-09T01:45:53;100137.25;;;15.13;90.40
71424;BME280;59240;51.370;-0.486;2022-09-09T01:48:22;100089.66;;;14.86;90.46
71424;BME280;59240;51.370;-0.486;2022-09-09T01:50:49;100123.59;;;15.06;91.17
71424;BME280;59240;51.370;-0.486;2022-09-09T01:53:17;100139.03;;;15.12;90.23
71424;BME280;59240;51.370;-0.486;2022-09-09T01:55:55;100149.75;;;15.25;91.08
71424;BME280;59240;51.370;-0.486;2022-09-09T01:58:37;100162.69;;;15.28;91.19
71424;BME280;59240;51.370;-0.486;2022-09-09T02:03:54;100123.78;;;15.03;90.35
71424;BME280;59240;51.370;-0.486;2022-09-09T02:06:35;100124.09;;;14.97;90.28
71424;BME280;59240;51.370;-0.486;2022-09-09T02:09:07;100167.41;;;15.21;91.20
71424;BME280;59240;51.370;-0.486;2022-09-09T02:11:36;100155.84;;;15.08;90.06
71424;BME280;59240;51.370;-0.486;2022-09-09T02:14:11;100182.94;;;15.26;90.83
71424;BME280;59240;51.370;-0.486;2022-09-09T02:16:42;100177.59;;;15.27;90.88
71424;BME280;59240;51.370;-0.486;2022-09-09T02:21:42;100186.63;;;15.22;90.70
71424;BME280;59240;51.370;-0.486;2022-09-09T02:24:11;100158.91;;;15.16;90.56
71424;BME280;59240;51.370;-0.486;2022-09-09T02:26:40;100170.97;;;15.20;91.14
71424;BME280;59240;51.370;-0.486;2022-09-09T02:29:13;100160.03;;;15.12;90.86
71424;BME280;59240;51.370;-0.486;2022-09-09T02:31:42;100162.34;;;15.18;90.39
71424;BME280;59240;51.370;-0.486;2022-09-09T02:34:11;100141.34;;;15.01;90.10
71424;BME280;59240;51.370;-0.486;2022-09-09T02:36:41;100133.56;;;14.99;90.45
71424;BME280;59240;51.370;-0.486;2022-09-09T02:39:10;100120.97;;;14.89;90.54
71424;BME280;59240;51.370;-0.486;2022-09-09T02:41:39;100176.53;;;15.14;90.52
71424;BME280;59240;51.370;-0.486;2022-09-09T02:44:11;100182.72;;;15.13;90.92
71424;BME280;59240;51.370;-0.486;2022-09-09T02:52:30;100193.38;;;15.10;90.81
71424;BME280;59240;51.370;-0.486;2022-09-09T02:55:05;100147.91;;;14.92;90.89
71424;BME280;59240;51.370;-0.486;2022-09-09T02:57:34;100166.03;;;14.97;90.83
71424;BME280;59240;51.370;-0.486;2022-09-09T03:00:03;100190.78;;;15.09;90.32
71424;BME280;59240;51.370;-0.486;2022-09-09T03:02:30;100142.34;;;14.81;90.83
71424;BME280;59240;51.370;-0.486;2022-09-09T03:04:57;100158.31;;;14.94;90.41
71424;BME280;59240;51.370;-0.486;2022-09-09T03:07:24;100150.91;;;14.85;90.77
71424;BME280;59240;51.370;-0.486;2022-09-09T03:09:50;100183.00;;;15.07;90.52
71424;BME280;59240;51.370;-0.486;2022-09-09T03:12:18;100125.00;;;14.78;90.63
71424;BME280;59240;51.370;-0.486;2022-09-09T03:14:45;100167.50;;;15.02;90.36
71424;BME280;59240;51.370;-0.486;2022-09-09T03:17:12;100163.72;;;15.08;90.71
71424;BME280;59240;51.370;-0.486;2022-09-09T03:19:39;100181.00;;;15.12;90.74
71424;BME280;59240;51.370;-0.486;2022-09-09T03:22:06;100179.31;;;15.11;90.13
71424;BME280;59240;51.370;-0.486;2022-09-09T03:24:34;100177.63;;;15.10;90.69
71424;BME280;59240;51.370;-0.486;2022-09-09T03:27:01;100187.19;;;15.11;90.82
71424;BME280;59240;51.370;-0.486;2022-09-09T03:29:27;100165.97;;;14.98;90.15
71424;BME280;59240;51.370;-0.486;2022-09-09T03:31:54;100171.22;;;14.98;90.20
71424;BME280;59240;51.370;-0.486;2022-09-09T03:34:20;100204.53;;;15.14;90.29
71424;BME280;59240;51.370;-0.486;2022-09-09T03:36:47;100167.97;;;14.93;90.03
71424;BME280;59240;51.370;-0.486;2022-09-09T03:39:15;100138.47;;;14.71;90.32
71424;BME280;59240;51.370;-0.486;2022-09-09T03:41:42;100176.66;;;14.94;90.14
71424;BME280;59240;51.370;-0.486;2022-09-09T03:44:12;100161.69;;;14.78;89.96
71424;BME280;59240;51.370;-0.486;2022-09-09T03:46:39;100177.13;;;14.85;89.98
71424;BME280;59240;51.370;-0.486;2022-09-09T03:49:05;100197.94;;;14.88;90.18
71424;BME280;59240;51.370;-0.486;2022-09-09T03:51:32;100204.88;;;14.89;90.39
71424;BME280;59240;51.370;-0.486;2022-09-09T03:54:03;100182.84;;;14.75;90.17
71424;BME280;59240;51.370;-0.486;2022-09-09T03:56:31;100232.22;;;15.02;90.42
71424;BME280;59240;51.370;-0.486;2022-09-09T03:58:58;100218.63;;;14.94;90.36
71424;BME280;59240;51.370;-0.486;2022-09-09T04:01:25;100199.81;;;14.86;91.01
71424;BME280;59240;51.370;-0.486;2022-09-09T04:03:51;100215.16;;;14.93;90.72
71424;BME280;59240;51.370;-0.486;2022-09-09T04:06:18;100221.13;;;14.97;90.83
71424;BME280;59240;51.370;-0.486;2022-09-09T04:08:49;100194.84;;;14.80;90.95
71424;BME280;59240;51.370;-0.486;2022-09-09T04:11:18;100169.94;;;14.71;90.16
71424;BME280;59240;51.370;-0.486;2022-09-09T04:13:45;100209.16;;;14.91;90.25
71424;BME280;59240;51.370;-0.486;2022-09-09T04:16:12;100216.78;;;14.96;90.52
71424;BME280;59240;51.370;-0.486;2022-09-09T04:18:42;100197.19;;;14.86;90.66
71424;BME280;59240;51.370;-0.486;2022-09-09T04:21:10;100221.03;;;14.98;90.35
71424;BME280;59240;51.370;-0.486;2022-09-09T04:23:38;100228.69;;;15.03;90.64
71424;BME280;59240;51.370;-0.486;2022-09-09T04:26:05;100228.63;;;15.04;90.91
71424;BME280;59240;51.370;-0.486;2022-09-09T04:28:34;100248.91;;;15.18;90.68
71424;BME280;59240;51.370;-0.486;2022-09-09T04:31:10;100254.00;;;15.21;91.02
71424;BME280;59240;51.370;-0.486;2022-09-09T04:33:38;100237.16;;;15.08;90.48
71424;BME280;59240;51.370;-0.486;2022-09-09T04:36:06;100212.16;;;15.01;90.61
71424;BME280;59240;51.370;-0.486;2022-09-09T04:38:33;100212.25;;;14.99;90.82
71424;BME280;59240;51.370;-0.486;2022-09-09T04:41:00;100254.94;;;15.20;89.93
71424;BME280;59240;51.370;-0.486;2022-09-09T04:43:27;100210.69;;;14.95;90.20
71424;BME280;59240;51.370;-0.486;2022-09-09T04:45:54;100263.44;;;15.25;90.64
71424;BME280;59240;51.370;-0.486;2022-09-09T04:48:21;100238.84;;;15.09;90.89
71424;BME280;59240;51.370;-0.486;2022-09-09T04:51:02;100261.13;;;15.19;91.67
71424;BME280;59240;51.370;-0.486;2022-09-09T04:53:31;100232.22;;;15.02;90.64
71424;BME280;59240;51.370;-0.486;2022-09-09T04:56:09;100274.63;;;15.29;91.34
71424;BME280;59240;51.370;-0.486;2022-09-09T04:58:39;100231.44;;;15.00;90.55
71424;BME280;59240;51.370;-0.486;2022-09-09T05:01:14;100242.56;;;15.05;90.38
71424;BME280;59240;51.370;-0.486;2022-09-09T05:03:42;100273.00;;;15.26;90.34
71424;BME280;59240;51.370;-0.486;2022-09-09T05:06:17;100240.88;;;15.04;91.27
71424;BME280;59240;51.370;-0.486;2022-09-09T05:08:47;100256.00;;;15.16;90.23
71424;BME280;59240;51.370;-0.486;2022-09-09T05:13:43;100298.03;;;15.33;90.29
71424;BME280;59240;51.370;-0.486;2022-09-09T05:16:11;100236.06;;;14.95;89.84
71424;BME280;59240;51.370;-0.486;2022-09-09T05:18:41;100278.72;;;15.17;90.02
71424;BME280;59240;51.370;-0.486;2022-09-09T05:21:11;100253.38;;;14.99;89.88
71424;BME280;59240;51.370;-0.486;2022-09-09T05:23:38;100264.41;;;15.05;90.57
71424;BME280;59240;51.370;-0.486;2022-09-09T05:26:07;100312.19;;;15.29;90.26
71424;BME280;59240;51.370;-0.486;2022-09-09T05:28:37;100277.63;;;15.04;89.93
71424;BME280;59240;51.370;-0.486;2022-09-09T05:31:06;100285.41;;;15.05;90.51
71424;BME280;59240;51.370;-0.486;2022-09-09T05:33:35;100262.47;;;14.92;89.91
71424;BME280;59240;51.370;-0.486;2022-09-09T05:36:05;100319.41;;;15.26;90.04
71424;BME280;59240;51.370;-0.486;2022-09-09T05:38:33;100323.78;;;15.25;89.63
71424;BME280;59240;51.370;-0.486;2022-09-09T05:41:02;100291.50;;;15.06;90.19
71424;BME280;59240;51.370;-0.486;2022-09-09T05:43:29;100215.94;;;14.59;90.02
71424;BME280;59240;51.370;-0.486;2022-09-09T05:48:29;100316.28;;;15.18;89.99
71424;BME280;59240;51.370;-0.486;2022-09-09T05:50:58;100277.63;;;14.85;89.80
71424;BME280;59240;51.370;-0.486;2022-09-09T05:53:39;100251.91;;;14.74;89.71
71424;BME280;59240;51.370;-0.486;2022-09-09T05:56:16;100259.66;;;14.77;89.40
71424;BME280;59240;51.370;-0.486;2022-09-09T05:58:46;100291.38;;;14.90;89.47
71424;BME280;59240;51.370;-0.486;2022-09-09T06:01:18;100299.19;;;14.92;89.79
71424;BME280;59240;51.370;-0.486;2022-09-09T06:03:46;100283.00;;;14.82;89.96
71424;BME280;59240;51.370;-0.486;2022-09-09T06:06:19;100277.53;;;14.69;89.79
71424;BME280;59240;51.370;-0.486;2022-09-09T06:08:51;100297.34;;;14.75;89.47
71424;BME280;59240;51.370;-0.486;2022-09-09T06:11:21;100311.00;;;14.82;88.98
71424;BME280;59240;51.370;-0.486;2022-09-09T06:13:49;100307.81;;;14.75;89.90
71424;BME280;59240;51.370;-0.486;2022-09-09T06:16:51;100261.31;;;14.41;90.82
71424;BME280;59240;51.370;-0.486;2022-09-09T06:19:21;100338.88;;;14.84;89.33
71424;BME280;59240;51.370;-0.486;2022-09-09T06:21:48;100299.06;;;14.57;89.61
71424;BME280;59240;51.370;-0.486;2022-09-09T06:24:15;100327.94;;;14.74;89.47
71424;BME280;59240;51.370;-0.486;2022-09-09T06:26:46;100295.66;;;14.55;90.14
71424;BME280;59240;51.370;-0.486;2022-09-09T06:29:13;100376.50;;;15.02;89.75
71424;BME280;59240;51.370;-0.486;2022-09-09T06:31:43;100336.63;;;14.76;90.06
71424;BME280;59240;51.370;-0.486;2022-09-09T06:34:27;100321.28;;;14.67;90.86
71424;BME280;59240;51.370;-0.486;2022-09-09T06:36:57;100324.44;;;14.75;89.93
71424;BME280;59240;51.370;-0.486;2022-09-09T06:39:29;100300.59;;;14.61;89.17
71424;BME280;59240;51.370;-0.486;2022-09-09T06:42:03;100268.88;;;14.48;90.03
71424;BME280;59240;51.370;-0.486;2022-09-09T06:44:30;100344.53;;;14.94;89.75
71424;BME280;59240;51.370;-0.486;2022-09-09T06:47:00;100298.41;;;14.71;89.42
71424;BME280;59240;51.370;-0.486;2022-09-09T06:49:43;100382.47;;;15.24;89.47
71424;BME280;59240;51.370;-0.486;2022-09-09T06:52:13;100343.25;;;15.02;90.19
71424;BME280;59240;51.370;-0.486;2022-09-09T06:54:47;100339.63;;;15.05;89.49
71424;BME280;59240;51.370;-0.486;2022-09-09T06:57:26;100347.34;;;15.08;90.28
71424;BME280;59240;51.370;-0.486;2022-09-09T07:03:14;100289.13;;;14.83;89.87
71424;BME280;59240;51.370;-0.486;2022-09-09T07:05:43;100286.44;;;14.84;89.67
71424;BME280;59240;51.370;-0.486;2022-09-09T07:08:31;100324.81;;;15.04;89.67
71424;BME280;59240;51.370;-0.486;2022-09-09T07:11:10;100336.44;;;15.17;90.85
71424;BME280;59240;51.370;-0.486;2022-09-09T07:17:21;100332.88;;;15.18;89.88
71424;BME280;59240;51.370;-0.486;2022-09-09T07:19:48;100349.03;;;15.28;89.28
71424;BME280;59240;51.370;-0.486;2022-09-09T07:22:48;100366.91;;;15.39;90.48
71424;BME280;59240;51.370;-0.486;2022-09-09T07:25:42;100309.09;;;15.04;89.00
71424;BME280;59240;51.370;-0.486;2022-09-09T07:28:33;100303.28;;;14.97;89.01
71424;BME280;59240;51.370;-0.486;2022-09-09T07:31:33;100424.19;;;15.67;90.22
71424;BME280;59240;51.370;-0.486;2022-09-09T07:34:19;100356.34;;;15.21;88.29
71424;BME280;59240;51.370;-0.486;2022-09-09T07:36:56;100368.25;;;15.28;88.78
71424;BME280;59240;51.370;-0.486;2022-09-09T07:39:23;100391.56;;;15.35;88.19
71424;BME280;59240;51.370;-0.486;2022-09-09T07:41:51;100383.00;;;15.31;88.04
71424;BME280;59240;51.370;-0.486;2022-09-09T07:44:24;100395.13;;;15.33;87.76
71424;BME280;59240;51.370;-0.486;2022-09-09T07:47:05;100440.16;;;15.62;87.95
71424;BME280;59240;51.370;-0.486;2022-09-09T07:50:01;100379.53;;;15.30;87.92
71424;BME280;59240;51.370;-0.486;2022-09-09T07:52:54;100404.88;;;15.49;87.89
71424;BME280;59240;51.370;-0.486;2022-09-09T07:55:28;100361.47;;;15.24;88.38
71424;BME280;59240;51.370;-0.486;2022-09-09T07:58:33;100383.88;;;15.49;89.27
71424;BME280;59240;51.370;-0.486;2022-09-09T08:01:20;100350.81;;;15.27;84.43
71424;BME280;59240;51.370;-0.486;2022-09-09T08:04:01;100428.59;;;15.83;86.87
71424;BME280;59240;51.370;-0.486;2022-09-09T08:18:18;100434.19;;;15.95;88.57
71424;BME280;59240;51.370;-0.486;2022-09-09T08:21:43;100385.72;;;15.66;87.14
71424;BME280;59240;51.370;-0.486;2022-09-09T08:24:54;100411.53;;;15.75;88.11
71424;BME280;59240;51.370;-0.486;2022-09-09T08:28:14;100405.66;;;15.70;87.56
71424;BME280;59240;51.370;-0.486;2022-09-09T08:31:28;100383.47;;;15.58;87.30
71424;BME280;59240;51.370;-0.486;2022-09-09T08:38:51;100413.94;;;15.79;88.27
71424;BME280;59240;51.370;-0.486;2022-09-09T08:56:26;100506.88;;;16.13;88.77
71424;BME280;59240;51.370;-0.486;2022-09-09T08:59:20;100411.53;;;15.56;88.10
71424;BME280;59240;51.370;-0.486;2022-09-09T09:11:11;100426.91;;;15.82;87.00
71424;BME280;59240;51.370;-0.486;2022-09-09T09:14:45;100509.66;;;16.27;87.50
71424;BME280;59240;51.370;-0.486;2022-09-09T09:25:38;100460.94;;;16.37;87.22
71424;BME280;59240;51.370;-0.486;2022-09-09T09:28:28;100456.59;;;16.36;85.71
71424;BME280;59240;51.370;-0.486;2022-09-09T09:35:27;100451.34;;;16.36;86.22
71424;BME280;59240;51.370;-0.486;2022-09-09T09:38:10;100543.72;;;16.82;84.26
71424;BME280;59240;51.370;-0.486;2022-09-09T09:41:35;100476.56;;;16.23;85.05
71424;BME280;59240;51.370;-0.486;2022-09-09T09:44:44;100500.22;;;16.23;84.61
71424;BME280;59240;51.370;-0.486;2022-09-09T09:47:20;100489.22;;;16.15;85.96
71424;BME280;59240;51.370;-0.486;2022-09-09T09:50:18;100526.97;;;16.31;85.38
71424;BME280;59240;51.370;-0.486;2022-09-09T09:56:18;100485.41;;;16.03;84.69
71424;BME280;59240;51.370;-0.486;2022-09-09T10:02:42;100551.88;;;16.41;84.28
71424;BME280;59240;51.370;-0.486;2022-09-09T10:05:45;100572.38;;;16.52;84.23
71424;BME280;59240;51.370;-0.486;2022-09-09T10:33:33;100550.66;;;16.83;86.67
71424;BME280;59240;51.370;-0.486;2022-09-09T10:51:21;100631.44;;;17.82;84.21
71424;BME280;59240;51.370;-0.486;2022-09-09T10:57:45;100531.78;;;17.41;82.60
71424;BME280;59240;51.370;-0.486;2022-09-09T11:00:23;100558.66;;;17.64;83.04
71424;BME280;59240;51.370;-0.486;2022-09-09T11:06:55;100526.38;;;17.44;81.39
71424;BME280;59240;51.370;-0.486;2022-09-09T11:10:40;100631.63;;;18.11;83.68
71424;BME280;59240;51.370;-0.486;2022-09-09T11:17:47;100527.53;;;17.55;82.16
71424;BME280;59240;51.370;-0.486;2022-09-09T11:21:45;100545.75;;;17.59;77.67
71424;BME280;59240;51.370;-0.486;2022-09-09T11:33:04;100606.47;;;17.89;82.46
71424;BME280;59240;51.370;-0.486;2022-09-09T12:13:51;100662.75;;;18.51;79.99
71424;BME280;59240;51.370;-0.486;2022-09-09T12:37:39;100612.47;;;19.29;75.83
71424;BME280;59240;51.370;-0.486;2022-09-09T12:48:03;100673.50;;;19.53;78.50
71424;BME280;59240;51.370;-0.486;2022-09-09T12:50:37;100566.41;;;18.90;74.74
71424;BME280;59240;51.370;-0.486;2022-09-09T13:01:33;100591.97;;;19.04;78.92
71424;BME280;59240;51.370;-0.486;2022-09-09T13:04:20;100606.75;;;19.06;72.05
71424;BME280;59240;51.370;-0.486;2022-09-09T13:11:24;100671.09;;;19.20;79.25
71424;BME280;59240;51.370;-0.486;2022-09-09T13:27:24;100675.06;;;19.27;77.78
71424;BME280;59240;51.370;-0.486;2022-09-09T13:31:27;100674.53;;;19.22;78.55
71424;BME280;59240;51.370;-0.486;2022-09-09T13:37:05;100586.09;;;18.84;74.29
71424;BME280;59240;51.370;-0.486;2022-09-09T13:39:53;100601.47;;;19.06;71.60
71424;BME280;59240;51.370;-0.486;2022-09-09T13:42:32;100624.72;;;19.30;75.66
71424;BME280;59240;51.370;-0.486;2022-09-09T13:45:23;100593.78;;;19.32;75.09
71424;BME280;59240;51.370;-0.486;2022-09-09T13:47:53;100586.78;;;19.45;69.75
71424;BME280;59240;51.370;-0.486;2022-09-09T13:50:25;100599.28;;;19.57;71.15
71424;BME280;59240;51.370;-0.486;2022-09-09T13:52:59;100584.53;;;19.67;69.82
71424;BME280;59240;51.370;-0.486;2022-09-09T13:55:36;100673.00;;;20.17;72.24
71424;BME280;59240;51.370;-0.486;2022-09-09T13:58:14;100618.13;;;19.80;69.97
71424;BME280;59240;51.370;-0.486;2022-09-09T14:00:47;100601.34;;;19.66;69.37
71424;BME280;59240;51.370;-0.486;2022-09-09T14:03:23;100621.06;;;19.75;74.70
71424;BME280;59240;51.370;-0.486;2022-09-09T14:06:06;100634.19;;;19.91;74.44
71424;BME280;59240;51.370;-0.486;2022-09-09T14:08:40;100641.13;;;20.06;69.91
71424;BME280;59240;51.370;-0.486;2022-09-09T14:11:11;100660.69;;;20.31;68.02
71424;BME280;59240;51.370;-0.486;2022-09-09T14:13:40;100674.69;;;20.47;67.94
71424;BME280;59240;51.370;-0.486;2022-09-09T14:16:11;100617.28;;;20.20;67.59
71424;BME280;59240;51.370;-0.486;2022-09-09T14:18:40;100591.44;;;20.11;67.59
71424;BME280;59240;51.370;-0.486;2022-09-09T14:21:07;100645.19;;;20.53;68.68
71424;BME280;59240;51.370;-0.486;2022-09-09T14:23:41;100631.66;;;20.70;67.35
71424;BME280;59240;51.370;-0.486;2022-09-09T14:26:12;100631.19;;;20.91;66.92
71424;BME280;59240;51.370;-0.486;2022-09-09T14:28:43;100607.03;;;20.83;69.05
71424;BME280;59240;51.370;-0.486;2022-09-09T14:31:23;100613.94;;;20.98;67.62
71424;BME280;59240;51.370;-0.486;2022-09-09T14:34:01;100632.91;;;21.17;66.35
71424;BME280;59240;51.370;-0.486;2022-09-09T14:36:30;100623.41;;;21.15;67.25
71424;BME280;59240;51.370;-0.486;2022-09-09T14:38:57;100637.50;;;21.41;66.15
71424;BME280;59240;51.370;-0.486;2022-09-09T14:41:27;100619.59;;;21.32;65.71
71424;BME280;59240;51.370;-0.486;2022-09-09T14:43:56;100661.03;;;21.58;65.06
71424;BME280;59240;51.370;-0.486;2022-09-09T14:46:35;100603.97;;;21.27;67.10
71424;BME280;59240;51.370;-0.486;2022-09-09T14:49:02;100606.34;;;21.32;64.55
71424;BME280;59240;51.370;-0.486;2022-09-09T14:51:37;100626.69;;;21.44;67.71
71424;BME280;59240;51.370;-0.486;2022-09-09T14:54:08;100649.78;;;21.67;65.15
71424;BME280;59240;51.370;-0.486;2022-09-09T14:56:37;100626.88;;;21.66;66.23
71424;BME280;59240;51.370;-0.486;2022-09-09T14:59:18;100599.94;;;21.72;65.74
71424;BME280;59240;51.370;-0.486;2022-09-09T15:01:48;100621.41;;;21.93;64.53
71424;BME280;59240;51.370;-0.486;2022-09-09T15:04:16;100650.97;;;22.25;63.87
71424;BME280;59240;51.370;-0.486;2022-09-09T15:06:46;100621.59;;;22.16;62.94
71424;BME280;59240;51.370;-0.486;2022-09-09T15:09:17;100608.81;;;21.97;64.05
71424;BME280;59240;51.370;-0.486;2022-09-09T15:11:46;100614.63;;;21.89;63.46
71424;BME280;59240;51.370;-0.486;2022-09-09T15:14:13;100625.16;;;21.91;62.82
71424;BME280;59240;51.370;-0.486;2022-09-09T15:16:41;100648.88;;;22.05;62.86
71424;BME280;59240;51.370;-0.486;2022-09-09T15:19:10;100665.84;;;22.15;63.40
71424;BME280;59240;51.370;-0.486;2022-09-09T15:21:39;100620.72;;;21.78;63.15
71424;BME280;59240;51.370;-0.486;2022-09-09T15:24:06;100703.84;;;22.16;62.79
71424;BME280;59240;51.370;-0.486;2022-09-09T15:26:37;100613.44;;;21.56;63.14
71424;BME280;59240;51.370;-0.486;2022-09-09T15:29:05;100675.44;;;21.92;63.61
71424;BME280;59240;51.370;-0.486;2022-09-09T15:31:35;100611.63;;;21.57;63.30
71424;BME280;59240;51.370;-0.486;2022-09-09T15:34:04;100654.03;;;21.82;62.06
71424;BME280;59240;51.370;-0.486;2022-09-09T15:36:42;100661.16;;;21.69;62.01
71424;BME280;59240;51.370;-0.486;2022-09-09T15:39:11;100611.00;;;21.15;62.76
71424;BME280;59240;51.370;-0.486;2022-09-09T15:41:40;100639.91;;;21.18;63.74
71424;BME280;59240;51.370;-0.486;2022-09-09T15:44:07;100701.31;;;21.38;62.62
71424;BME280;59240;51.370;-0.486;2022-09-09T15:46:45;100660.56;;;21.00;64.92
71424;BME280;59240;51.370;-0.486;2022-09-09T15:49:18;100697.88;;;21.10;64.01
71424;BME280;59240;51.370;-0.486;2022-09-09T15:51:47;100716.00;;;21.16;63.86
71424;BME280;59240;51.370;-0.486;2022-09-09T15:54:25;100618.31;;;20.59;66.98
71424;BME280;59240;51.370;-0.486;2022-09-09T15:56:56;100724.78;;;21.17;67.43
71424;BME280;59240;51.370;-0.486;2022-09-09T15:59:24;100688.38;;;20.81;63.32
71424;BME280;59240;51.370;-0.486;2022-09-09T16:01:55;100730.13;;;20.90;64.86
71424;BME280;59240;51.370;-0.486;2022-09-09T16:04:23;100733.16;;;20.84;64.70
71424;BME280;59240;51.370;-0.486;2022-09-09T16:06:57;100619.59;;;20.12;68.08
71424;BME280;59240;51.370;-0.486;2022-09-09T16:09:25;100697.28;;;20.65;64.85
71424;BME280;59240;51.370;-0.486;2022-09-09T16:11:55;100669.28;;;20.48;65.95
71424;BME280;59240;51.370;-0.486;2022-09-09T16:14:22;100685.22;;;20.61;65.34
71424;BME280;59240;51.370;-0.486;2022-09-09T16:16:52;100622.03;;;20.15;64.83
71424;BME280;59240;51.370;-0.486;2022-09-09T16:19:20;100709.41;;;20.69;64.88
71424;BME280;59240;51.370;-0.486;2022-09-09T16:21:48;100699.88;;;20.67;66.16
71424;BME280;59240;51.370;-0.486;2022-09-09T16:24:17;100713.19;;;20.65;65.05
71424;BME280;59240;51.370;-0.486;2022-09-09T16:26:50;100678.09;;;20.35;65.41
71424;BME280;59240;51.370;-0.486;2022-09-09T16:29:18;100620.56;;;19.97;66.25
71424;BME280;59240;51.370;-0.486;2022-09-09T16:31:48;100665.47;;;20.26;65.29
71424;BME280;59240;51.370;-0.486;2022-09-09T16:34:18;100664.88;;;20.35;67.13
71424;BME280;59240;51.370;-0.486;2022-09-09T16:36:47;100680.13;;;20.44;64.94
71424;BME280;59240;51.370;-0.486;2022-09-09T16:39:19;100670.50;;;20.43;65.21
71424;BME280;59240;51.370;-0.486;2022-09-09T16:41:47;100666.78;;;20.33;64.04
71424;BME280;59240;51.370;-0.486;2022-09-09T16:44:18;100691.78;;;20.41;64.44
71424;BME280;59240;51.370;-0.486;2022-09-09T16:46:47;100639.44;;;20.05;65.37
71424;BME280;59240;51.370;-0.486;2022-09-09T16:49:26;100699.28;;;20.20;65.34
71424;BME280;59240;51.370;-0.486;2022-09-09T16:52:00;100669.56;;;19.88;68.21
71424;BME280;59240;51.370;-0.486;2022-09-09T16:54:29;100628.34;;;19.57;66.59
71424;BME280;59240;51.370;-0.486;2022-09-09T16:56:59;100705.38;;;19.94;67.73
71424;BME280;59240;51.370;-0.486;2022-09-09T16:59:26;100638.31;;;19.38;67.57
71424;BME280;59240;51.370;-0.486;2022-09-09T17:01:53;100650.56;;;19.39;68.35
71424;BME280;59240;51.370;-0.486;2022-09-09T17:04:25;100712.72;;;19.60;71.15
71424;BME280;59240;51.370;-0.486;2022-09-09T17:06:54;100673.38;;;19.26;68.42
71424;BME280;59240;51.370;-0.486;2022-09-09T17:09:24;100724.84;;;19.49;68.63
71424;BME280;59240;51.370;-0.486;2022-09-09T17:11:55;100715.50;;;19.43;68.64
71424;BME280;59240;51.370;-0.486;2022-09-09T17:14:24;100737.59;;;19.56;69.56
71424;BME280;59240;51.370;-0.486;2022-09-09T17:16:51;100734.06;;;19.57;69.31
71424;BME280;59240;51.370;-0.486;2022-09-09T17:19:18;100753.31;;;19.59;69.98
71424;BME280;59240;51.370;-0.486;2022-09-09T17:21:45;100695.25;;;19.28;70.10
71424;BME280;59240;51.370;-0.486;2022-09-09T17:24:36;100741.09;;;19.57;69.59
71424;BME280;59240;51.370;-0.486;2022-09-09T17:27:04;100732.31;;;19.56;69.86
71424;BME280;59240;51.370;-0.486;2022-09-09T17:29:31;100729.50;;;19.59;70.38
71424;BME280;59240;51.370;-0.486;2022-09-09T17:31:58;100734.22;;;19.68;70.28
71424;BME280;59240;51.370;-0.486;2022-09-09T17:34:25;100735.19;;;19.67;70.06
71424;BME280;59240;51.370;-0.486;2022-09-09T17:36:51;100741.44;;;19.81;70.66
71424;BME280;59240;51.370;-0.486;2022-09-09T17:39:18;100731.22;;;19.75;69.88